Time;durP1;ratioP1;P1;durP2;ratioP2;P2;SDS_P1;SDS_P2;PMS_P1;PMS_P2;Temp;Humidity;BMP_temperature;BMP_pressure;BME280_temperature;BME280_humidity;BME280_pressure;Samples;Min_cycle;Max_cycle;Signal;HPM_P1;HPM_P2
2021/07/19 00:01:55;;;;;;;7.60;6.90;;;23.80;99.90;;;;;;5111102;28;20028;-72
2021/07/19 00:04:21;;;;;;;13.07;6.97;;;23.80;99.90;;;;;;5111246;28;20030;-70
2021/07/19 00:06:47;;;;;;;11.68;7.45;;;23.90;99.90;;;;;;5109768;28;20030;-71
2021/07/19 00:09:13;;;;;;;8.23;6.43;;;23.90;99.90;;;;;;5111475;28;20027;-71
2021/07/19 00:11:42;;;;;;;8.32;6.57;;;24.00;99.90;;;;;;5111329;28;20027;-71
2021/07/19 00:14:08;;;;;;;6.32;5.78;;;23.90;99.90;;;;;;5111182;28;20031;-71
2021/07/19 00:16:34;;;;;;;6.55;5.95;;;24.00;99.90;;;;;;5109235;28;20519;-71
2021/07/19 00:19:00;;;;;;;5.38;4.97;;;24.00;99.90;;;;;;5109307;28;20035;-71
2021/07/19 00:21:27;;;;;;;6.95;6.40;;;24.10;99.90;;;;;;5109667;28;20513;-71
2021/07/19 00:23:52;;;;;;;4.47;4.18;;;24.20;99.90;;;;;;5109802;28;20035;-70
2021/07/19 00:26:21;;;;;;;6.15;5.65;;;24.30;99.90;;;;;;5110859;28;20028;-70
2021/07/19 00:28:48;;;;;;;9.95;5.57;;;24.40;99.90;;;;;;5110441;28;20543;-70
2021/07/19 00:31:15;;;;;;;5.43;5.03;;;24.40;99.90;;;;;;5109503;28;20023;-70
2021/07/19 00:33:40;;;;;;;7.75;6.03;;;24.40;99.90;;;;;;5110129;28;20112;-71
2021/07/19 00:36:06;;;;;;;6.22;5.35;;;24.50;99.90;;;;;;5110622;28;20078;-70
2021/07/19 00:38:35;;;;;;;5.80;5.25;;;24.50;99.90;;;;;;5109229;28;20035;-69
2021/07/19 00:41:00;;;;;;;5.30;4.90;;;24.50;99.90;;;;;;5110534;28;20019;-70
2021/07/19 00:43:26;;;;;;;5.53;5.03;;;24.50;99.90;;;;;;5111233;28;20016;-72
2021/07/19 00:45:52;;;;;;;6.57;5.88;;;24.50;99.90;;;;;;5109801;28;20030;-71
2021/07/19 00:48:19;;;;;;;7.13;5.57;;;24.50;99.90;;;;;;5110089;28;20040;-71
2021/07/19 00:50:44;;;;;;;6.30;5.70;;;24.40;99.90;;;;;;5111565;28;20031;-71
2021/07/19 00:53:10;;;;;;;7.68;5.38;;;24.40;99.90;;;;;;5111287;28;20080;-71
2021/07/19 00:55:44;;;;;;;5.72;4.75;;;24.50;99.90;;;;;;5109633;28;20374;-71
2021/07/19 00:58:12;;;;;;;5.88;4.88;;;24.60;99.90;;;;;;5109451;28;20028;-71
2021/07/19 01:00:42;;;;;;;4.85;4.45;;;24.60;99.90;;;;;;5109874;28;20019;-72
2021/07/19 01:03:09;;;;;;;6.88;5.20;;;24.60;99.90;;;;;;5109904;28;20030;-71
2021/07/19 01:05:40;;;;;;;6.60;5.95;;;24.60;99.90;;;;;;5110415;28;20106;-71
2021/07/19 01:08:09;;;;;;;5.38;4.85;;;24.60;99.90;;;;;;5111554;28;20382;-71
2021/07/19 01:10:36;;;;;;;6.22;5.32;;;24.60;99.90;;;;;;5109142;28;20497;-71
2021/07/19 01:13:05;;;;;;;5.20;4.70;;;24.60;99.90;;;;;;5108998;28;20028;-71
2021/07/19 01:15:35;;;;;;;5.95;5.45;;;24.60;99.90;;;;;;5110277;28;20494;-71
2021/07/19 01:18:04;;;;;;;5.75;4.40;;;24.50;99.90;;;;;;5099620;28;20245;-71
2021/07/19 01:20:55;;;;;;;7.22;5.65;;;24.50;99.90;;;;;;5109943;28;20452;-71
2021/07/19 01:23:33;;;;;;;7.40;4.60;;;24.50;99.90;;;;;;5100576;28;20068;-71
2021/07/19 01:26:20;;;;;;;5.35;4.93;;;24.40;99.90;;;;;;5109046;28;20077;-71
2021/07/19 01:28:57;;;;;;;8.13;5.63;;;24.40;99.90;;;;;;5108750;28;20063;-71
2021/07/19 01:31:29;;;;;;;5.40;5.00;;;24.40;99.90;;;;;;5108651;28;20063;-72
2021/07/19 01:34:04;;;;;;;5.03;4.60;;;24.40;99.90;;;;;;5108963;28;20144;-71
2021/07/19 01:36:34;;;;;;;7.78;5.78;;;24.30;99.90;;;;;;5110217;28;20031;-71
2021/07/19 01:39:00;;;;;;;7.93;5.22;;;24.30;99.90;;;;;;5108573;28;20047;-72
2021/07/19 01:41:28;;;;;;;6.50;5.15;;;24.30;99.90;;;;;;5108903;28;20110;-71
2021/07/19 01:43:56;;;;;;;6.25;5.07;;;24.20;99.90;;;;;;5109601;28;20080;-71
2021/07/19 01:46:26;;;;;;;6.68;5.35;;;24.20;99.90;;;;;;5113989;28;20024;-71
2021/07/19 01:48:54;;;;;;;5.68;4.53;;;24.20;99.90;;;;;;5112169;28;20089;-71
2021/07/19 01:51:20;;;;;;;6.20;4.90;;;24.20;99.90;;;;;;5113860;28;20107;-71
2021/07/19 01:53:47;;;;;;;5.18;4.68;;;24.30;99.90;;;;;;5112445;28;20087;-69
2021/07/19 01:56:14;;;;;;;5.47;4.93;;;24.20;99.90;;;;;;5113557;28;20051;-69
2021/07/19 01:58:40;;;;;;;4.80;4.40;;;24.20;99.90;;;;;;5111972;28;20136;-69
2021/07/19 02:01:07;;;;;;;5.30;4.90;;;24.10;99.90;;;;;;5112096;28;20110;-71
2021/07/19 02:03:33;;;;;;;5.20;4.80;;;24.10;99.90;;;;;;5113421;28;20051;-70
2021/07/19 02:06:01;;;;;;;6.40;5.38;;;24.10;99.90;;;;;;5112113;28;20024;-70
2021/07/19 02:08:28;;;;;;;5.70;4.90;;;24.10;99.90;;;;;;5112002;28;20458;-70
2021/07/19 02:10:56;;;;;;;5.88;4.40;;;24.20;99.90;;;;;;5113212;28;20035;-73
2021/07/19 02:13:24;;;;;;;5.55;4.72;;;24.20;99.90;;;;;;5113518;28;20418;-71
2021/07/19 02:15:52;;;;;;;6.03;4.75;;;24.10;99.90;;;;;;5111846;28;20028;-71
2021/07/19 02:18:23;;;;;;;5.55;5.10;;;24.00;99.90;;;;;;5111253;28;20165;-71
2021/07/19 02:20:50;;;;;;;4.78;4.47;;;24.00;99.90;;;;;;5111745;28;20031;-71
2021/07/19 02:23:18;;;;;;;6.85;5.13;;;24.10;99.90;;;;;;5111937;28;20024;-71
2021/07/19 02:25:45;;;;;;;6.15;4.65;;;24.00;99.90;;;;;;5111858;28;20063;-70
2021/07/19 02:28:12;;;;;;;6.03;5.05;;;23.80;99.90;;;;;;5111455;28;20032;-71
2021/07/19 02:30:40;;;;;;;5.88;4.90;;;23.90;99.90;;;;;;5111636;28;20110;-70
2021/07/19 02:33:08;;;;;;;7.35;5.68;;;24.00;99.90;;;;;;5111718;28;20554;-70
2021/07/19 02:35:35;;;;;;;7.05;5.93;;;24.00;99.90;;;;;;5113002;28;20039;-70
2021/07/19 02:38:05;;;;;;;5.80;4.43;;;23.90;99.90;;;;;;5112567;28;20069;-70
2021/07/19 02:40:33;;;;;;;6.78;4.93;;;23.90;99.90;;;;;;5111524;28;20047;-70
2021/07/19 02:43:04;;;;;;;8.80;5.47;;;23.80;99.90;;;;;;5111723;28;20114;-72
2021/07/19 02:45:35;;;;;;;8.50;5.97;;;23.80;99.90;;;;;;5112927;28;20043;-70
2021/07/19 02:48:04;;;;;;;8.37;5.30;;;23.80;99.90;;;;;;5112662;28;20085;-70
2021/07/19 02:50:32;;;;;;;5.75;4.55;;;23.70;99.90;;;;;;5111284;28;20020;-71
2021/07/19 02:53:01;;;;;;;5.45;4.47;;;23.70;99.90;;;;;;5111537;28;20031;-70
2021/07/19 02:55:29;;;;;;;5.68;5.10;;;23.80;99.90;;;;;;5110444;28;20026;-70
2021/07/19 02:57:55;;;;;;;6.38;5.22;;;23.70;99.90;;;;;;5110897;28;20020;-69
2021/07/19 03:00:21;;;;;;;4.90;4.47;;;23.70;99.90;;;;;;5112323;28;20026;-70
2021/07/19 03:02:52;;;;;;;8.48;5.63;;;23.60;99.90;;;;;;5110843;28;20051;-71
2021/07/19 03:05:21;;;;;;;5.80;4.90;;;23.60;99.90;;;;;;5112386;28;20027;-70
2021/07/19 03:07:52;;;;;;;5.97;5.40;;;23.50;99.90;;;;;;5110545;28;20081;-70
2021/07/19 03:10:22;;;;;;;5.78;5.28;;;23.50;99.90;;;;;;5112082;28;20393;-70
2021/07/19 03:12:51;;;;;;;6.63;5.35;;;23.50;99.90;;;;;;5110647;28;20028;-70
2021/07/19 03:15:17;;;;;;;6.00;5.15;;;23.50;99.90;;;;;;5110626;28;20035;-70
2021/07/19 03:17:47;;;;;;;7.32;5.32;;;23.50;99.90;;;;;;5106473;28;20111;-71
2021/07/19 03:20:13;;;;;;;7.38;5.32;;;23.40;99.90;;;;;;5109849;28;20132;-72
2021/07/19 03:22:40;;;;;;;9.55;5.30;;;23.30;99.90;;;;;;5110445;28;20035;-71
2021/07/19 03:25:10;;;;;;;6.28;4.60;;;23.30;99.90;;;;;;5111892;28;20027;-71
2021/07/19 03:27:37;;;;;;;6.38;5.07;;;23.30;99.90;;;;;;5111461;28;20496;-70
2021/07/19 03:30:07;;;;;;;6.18;5.60;;;23.20;99.90;;;;;;5110519;28;20026;-70
2021/07/19 03:32:35;;;;;;;5.47;4.97;;;23.10;99.90;;;;;;5110717;28;20020;-70
2021/07/19 03:35:05;;;;;;;8.18;5.80;;;23.00;99.90;;;;;;5111663;28;20016;-71
2021/07/19 03:37:31;;;;;;;5.97;5.45;;;23.00;99.90;;;;;;5111559;28;20023;-70
2021/07/19 03:39:58;;;;;;;5.97;5.22;;;22.90;99.90;;;;;;5110323;28;20495;-70
2021/07/19 03:42:25;;;;;;;8.45;5.38;;;22.90;99.90;;;;;;5111462;28;20024;-71
2021/07/19 03:44:52;;;;;;;5.93;5.50;;;22.90;99.90;;;;;;5111591;28;20016;-71
2021/07/19 03:47:19;;;;;;;6.03;4.70;;;23.00;99.90;;;;;;5111361;28;20023;-71
2021/07/19 03:49:52;;;;;;;6.78;5.63;;;23.30;99.90;;;;;;5111340;28;20080;-71
2021/07/19 03:52:18;;;;;;;11.13;5.88;;;23.40;99.90;;;;;;5111461;28;20056;-72
2021/07/19 03:54:43;;;;;;;6.07;5.32;;;23.50;99.90;;;;;;5111533;28;20023;-71
2021/07/19 03:57:10;;;;;;;6.18;5.55;;;23.50;99.90;;;;;;5111162;28;20488;-71
2021/07/19 03:59:38;;;;;;;5.57;5.07;;;23.60;99.90;;;;;;5111256;28;20027;-71
2021/07/19 04:02:11;;;;;;;6.95;5.75;;;23.70;99.90;;;;;;5109835;28;20049;-70
2021/07/19 04:04:41;;;;;;;7.13;5.03;;;23.70;99.90;;;;;;5109963;28;20023;-69
2021/07/19 04:07:08;;;;;;;8.73;4.60;;;23.70;99.90;;;;;;5110455;28;20042;-70
2021/07/19 04:09:37;;;;;;;7.72;5.25;;;23.60;99.90;;;;;;5111075;28;20027;-70
2021/07/19 04:12:08;;;;;;;6.10;4.55;;;23.70;99.90;;;;;;5111193;28;20045;-72
2021/07/19 04:14:35;;;;;;;7.75;5.63;;;23.60;99.90;;;;;;5111410;28;20030;-72
2021/07/19 04:17:01;;;;;;;9.13;5.45;;;23.70;99.90;;;;;;5110884;28;20067;-72
2021/07/19 04:19:27;;;;;;;5.68;5.07;;;23.60;99.90;;;;;;5110271;28;20032;-71
2021/07/19 04:21:53;;;;;;;5.93;5.30;;;23.70;99.90;;;;;;5111763;28;20066;-70
2021/07/19 04:24:19;;;;;;;6.43;5.22;;;23.60;99.90;;;;;;5110398;28;20047;-70
2021/07/19 04:26:45;;;;;;;6.15;5.60;;;23.70;99.90;;;;;;5109962;28;20028;-71
2021/07/19 04:29:12;;;;;;;6.97;5.15;;;23.60;99.90;;;;;;5111198;28;20542;-70
2021/07/19 04:31:38;;;;;;;5.95;5.38;;;23.60;99.90;;;;;;5110916;28;20031;-71
2021/07/19 04:34:04;;;;;;;5.70;4.97;;;23.50;99.90;;;;;;5109567;28;20477;-71
2021/07/19 04:36:32;;;;;;;11.82;5.28;;;23.60;99.90;;;;;;5109928;28;20366;-71
2021/07/19 04:38:58;;;;;;;8.07;6.70;;;23.60;99.90;;;;;;5109846;28;20393;-72
2021/07/19 04:41:24;;;;;;;11.60;6.38;;;23.50;99.90;;;;;;5109338;28;20028;-72
2021/07/19 04:43:50;;;;;;;6.82;5.18;;;23.50;99.90;;;;;;5109485;28;20030;-72
2021/07/19 04:46:16;;;;;;;9.52;5.97;;;23.50;99.90;;;;;;5109617;28;20046;-72
2021/07/19 04:48:42;;;;;;;6.65;5.50;;;23.50;99.90;;;;;;5109199;28;20035;-71
2021/07/19 04:51:08;;;;;;;7.05;4.78;;;23.50;99.90;;;;;;5109278;28;20047;-72
2021/07/19 04:53:34;;;;;;;7.40;5.80;;;23.50;99.90;;;;;;5109282;28;20055;-72
2021/07/19 04:56:01;;;;;;;5.95;5.40;;;23.50;99.90;;;;;;5109129;28;20028;-71
2021/07/19 04:58:29;;;;;;;9.50;5.03;;;23.50;99.90;;;;;;5109069;28;20020;-71
2021/07/19 05:00:58;;;;;;;6.57;6.00;;;23.50;99.90;;;;;;5110459;28;20031;-71
2021/07/19 05:03:27;;;;;;;12.48;5.85;;;23.50;99.90;;;;;;5109522;28;20020;-71
2021/07/19 05:05:55;;;;;;;6.63;5.25;;;23.50;99.90;;;;;;5112255;28;20023;-70
2021/07/19 05:08:23;;;;;;;7.82;5.43;;;23.40;99.90;;;;;;5110155;28;20499;-70
2021/07/19 05:10:50;;;;;;;5.78;5.25;;;23.40;99.90;;;;;;5110551;28;20063;-71
2021/07/19 05:13:17;;;;;;;6.03;5.10;;;23.40;99.90;;;;;;5109379;28;20034;-71
2021/07/19 05:15:44;;;;;;;10.77;5.53;;;23.40;99.90;;;;;;5110434;28;20062;-71
2021/07/19 05:18:10;;;;;;;6.22;5.45;;;23.40;99.90;;;;;;5108043;28;20058;-71
2021/07/19 05:20:37;;;;;;;10.45;6.65;;;23.40;99.90;;;;;;5108062;28;20027;-71
2021/07/19 05:23:04;;;;;;;12.00;5.90;;;23.50;99.90;;;;;;5116405;28;20054;-71
2021/07/19 05:25:31;;;;;;;6.55;5.97;;;23.60;99.90;;;;;;5114534;28;20027;-71
2021/07/19 05:28:13;;;;;;;6.30;5.05;;;23.60;99.90;;;;;;5114162;28;20015;-72
2021/07/19 05:30:42;;;;;;;7.07;5.78;;;23.70;99.90;;;;;;5114221;28;20024;-72
2021/07/19 05:33:08;;;;;;;10.38;5.65;;;23.70;99.90;;;;;;5113192;28;20028;-71
2021/07/19 05:35:35;;;;;;;8.30;6.05;;;23.80;99.90;;;;;;5114808;28;20411;-72
2021/07/19 05:38:01;;;;;;;7.00;5.97;;;23.90;99.90;;;;;;5114448;28;20019;-72
2021/07/19 05:40:27;;;;;;;8.27;6.15;;;24.00;99.90;;;;;;5114647;28;20092;-72
2021/07/19 05:42:52;;;;;;;7.00;5.53;;;24.10;99.90;;;;;;5113125;28;20078;-72
2021/07/19 05:45:18;;;;;;;6.05;5.55;;;24.20;99.90;;;;;;5112746;28;20024;-72
2021/07/19 05:47:45;;;;;;;7.53;5.38;;;24.30;99.90;;;;;;5112587;28;20051;-72
2021/07/19 05:50:11;;;;;;;8.30;5.28;;;24.40;99.90;;;;;;5112658;28;20024;-72
2021/07/19 05:52:37;;;;;;;7.38;5.45;;;24.60;99.90;;;;;;5113972;28;20019;-72
2021/07/19 05:55:05;;;;;;;5.90;5.18;;;24.80;99.90;;;;;;5114022;28;20193;-72
2021/07/19 05:57:30;;;;;;;10.10;5.85;;;24.90;99.90;;;;;;5112528;28;20119;-74
2021/07/19 05:59:57;;;;;;;6.22;5.72;;;25.00;99.90;;;;;;5114149;28;20102;-72
2021/07/19 06:02:27;;;;;;;10.75;9.65;;;25.20;99.90;;;;;;5112485;28;20538;-72
2021/07/19 06:04:53;;;;;;;13.75;6.35;;;25.30;99.90;;;;;;5114030;28;20027;-71
2021/07/19 06:07:19;;;;;;;8.88;6.55;;;25.40;99.90;;;;;;5112229;28;20027;-72
2021/07/19 06:09:45;;;;;;;9.75;7.68;;;25.40;99.90;;;;;;5113511;28;20035;-73
2021/07/19 06:12:12;;;;;;;8.85;6.03;;;25.40;99.90;;;;;;5113274;28;20050;-71
2021/07/19 06:14:37;;;;;;;9.82;7.80;;;25.40;99.90;;;;;;5112172;28;20096;-71
2021/07/19 06:17:03;;;;;;;8.40;6.35;;;25.40;99.90;;;;;;5112169;28;20028;-72
2021/07/19 06:19:30;;;;;;;7.28;5.90;;;25.40;99.90;;;;;;5113808;28;20110;-72
2021/07/19 06:21:55;;;;;;;6.30;5.80;;;25.30;99.90;;;;;;5113263;28;20106;-72
2021/07/19 06:24:21;;;;;;;7.72;6.22;;;25.50;99.90;;;;;;5113388;28;20105;-72
2021/07/19 06:26:47;;;;;;;12.10;9.25;;;25.70;99.90;;;;;;5113425;28;20028;-72
2021/07/19 06:29:13;;;;;;;9.18;8.27;;;25.80;99.90;;;;;;5112174;28;20034;-72
2021/07/19 06:31:39;;;;;;;8.45;6.15;;;25.90;99.90;;;;;;5110450;28;20118;-71
2021/07/19 06:34:05;;;;;;;9.80;5.72;;;26.10;99.90;;;;;;5112993;28;20413;-72
2021/07/19 06:36:31;;;;;;;9.32;6.22;;;26.20;99.90;;;;;;5111602;28;20032;-71
2021/07/19 06:38:57;;;;;;;15.80;7.85;;;26.30;99.90;;;;;;5111454;28;20474;-71
2021/07/19 06:41:22;;;;;;;11.85;10.65;;;26.30;99.90;;;;;;5111338;28;20023;-72
2021/07/19 06:43:48;;;;;;;11.43;6.45;;;26.30;99.90;;;;;;5111371;28;20023;-71
2021/07/19 06:46:14;;;;;;;11.20;7.78;;;26.30;99.90;;;;;;5111583;28;20032;-72
2021/07/19 06:48:40;;;;;;;12.88;8.85;;;26.40;99.90;;;;;;5112780;28;20027;-72
2021/07/19 06:51:11;;;;;;;6.65;5.95;;;26.50;99.90;;;;;;5111232;28;20080;-72
2021/07/19 06:53:36;;;;;;;18.17;5.95;;;26.60;99.90;;;;;;5111300;28;20034;-72
2021/07/19 06:56:02;;;;;;;9.50;6.97;;;26.70;99.90;;;;;;5110913;28;20391;-71
2021/07/19 06:58:28;;;;;;;9.35;6.32;;;26.70;99.90;;;;;;5110897;28;20394;-71
2021/07/19 07:00:54;;;;;;;11.80;6.00;;;26.70;99.90;;;;;;5110084;28;20120;-72
2021/07/19 07:03:20;;;;;;;11.05;4.85;;;26.70;99.90;;;;;;5110745;28;20509;-70
2021/07/19 07:05:51;;;;;;;6.28;5.30;;;26.80;99.90;;;;;;5113833;28;20076;-71
2021/07/19 07:08:16;;;;;;;8.95;5.93;;;26.90;99.90;;;;;;5112938;28;20031;-67
2021/07/19 07:10:42;;;;;;;5.78;5.30;;;27.00;99.90;;;;;;5111005;28;20027;-67
2021/07/19 07:13:11;;;;;;;6.88;5.53;;;27.00;99.90;;;;;;5111257;28;20035;-67
2021/07/19 07:15:40;;;;;;;9.63;6.03;;;27.10;99.90;;;;;;5112712;27;20027;-67
2021/07/19 07:18:07;;;;;;;8.50;6.57;;;27.20;99.90;;;;;;5112276;28;20034;-66
2021/07/19 07:20:34;;;;;;;7.32;5.65;;;27.30;99.90;;;;;;5109319;28;20019;-66
2021/07/19 07:23:00;;;;;;;8.18;5.95;;;27.40;99.90;;;;;;5112719;28;20041;-63
2021/07/19 07:25:26;;;;;;;7.85;6.13;;;27.50;99.90;;;;;;5110383;28;20389;-66
2021/07/19 07:27:52;;;;;;;8.35;5.57;;;27.60;99.90;;;;;;5112136;28;20107;-66
2021/07/19 07:30:17;;;;;;;6.10;5.50;;;27.60;99.90;;;;;;5110836;28;20111;-67
2021/07/19 07:32:43;;;;;;;12.27;6.10;;;27.70;99.90;;;;;;5112636;27;20385;-67
2021/07/19 07:35:10;;;;;;;9.38;6.65;;;27.70;99.90;;;;;;5110733;28;20061;-67
2021/07/19 07:37:39;;;;;;;8.43;5.93;;;27.80;99.90;;;;;;5110269;28;20027;-66
2021/07/19 07:40:07;;;;;;;6.38;5.80;;;27.80;99.90;;;;;;5110497;28;20016;-65
2021/07/19 07:42:33;;;;;;;8.77;5.00;;;27.90;99.90;;;;;;5110463;28;20115;-68
2021/07/19 07:44:59;;;;;;;6.38;5.75;;;27.90;99.90;;;;;;5108487;27;20111;-67
2021/07/19 07:47:26;;;;;;;13.40;6.18;;;28.10;99.90;;;;;;5110876;28;20031;-67
2021/07/19 07:49:52;;;;;;;10.77;6.18;;;28.20;99.90;;;;;;5111702;28;20080;-66
2021/07/19 07:52:20;;;;;;;11.10;6.15;;;28.20;99.90;;;;;;5111028;28;20115;-65
2021/07/19 07:54:50;;;;;;;8.52;5.85;;;28.30;99.90;;;;;;5112413;28;20211;-65
2021/07/19 07:57:15;;;;;;;6.97;6.25;;;28.30;99.90;;;;;;5111733;28;20524;-65
2021/07/19 07:59:41;;;;;;;22.80;6.55;;;28.40;99.90;;;;;;5111520;27;20061;-66
2021/07/19 08:02:07;;;;;;;9.60;6.53;;;28.50;99.90;;;;;;5111744;28;20027;-66
2021/07/19 08:04:33;;;;;;;10.30;7.35;;;28.60;99.90;;;;;;5111784;28;20107;-65
2021/07/19 08:07:00;;;;;;;12.15;7.30;;;28.60;99.90;;;;;;5111302;28;20402;-64
2021/07/19 08:09:27;;;;;;;14.43;6.90;;;28.40;99.90;;;;;;5111065;28;20236;-65
2021/07/19 08:11:53;;;;;;;10.75;7.38;;;28.30;99.90;;;;;;5107983;28;20031;-65
2021/07/19 08:14:19;;;;;;;8.30;7.43;;;28.20;99.90;;;;;;5111423;28;20020;-66
2021/07/19 08:16:44;;;;;;;18.88;10.00;;;28.10;99.90;;;;;;5109812;28;20031;-65
2021/07/19 08:19:12;;;;;;;15.35;9.20;;;28.00;99.90;;;;;;5106966;28;20504;-68
2021/07/19 08:21:42;;;;;;;11.63;8.13;;;27.90;99.90;;;;;;5105246;28;20386;-69
2021/07/19 08:24:08;;;;;;;11.38;9.50;;;27.70;99.90;;;;;;5104725;27;20109;-70
2021/07/19 08:26:37;;;;;;;11.25;7.47;;;27.70;99.90;;;;;;5094086;28;20078;-71
2021/07/19 08:29:04;;;;;;;11.57;8.25;;;27.90;99.90;;;;;;5108279;28;20024;-69
2021/07/19 08:31:29;;;;;;;7.97;7.18;;;27.90;99.90;;;;;;5108668;28;20030;-67
2021/07/19 08:33:56;;;;;;;10.60;7.10;;;27.90;99.90;;;;;;5103436;27;20024;-65
2021/07/19 08:36:22;;;;;;;11.32;7.15;;;27.90;99.90;;;;;;5110176;28;20130;-63
2021/07/19 08:38:49;;;;;;;9.70;7.57;;;28.00;99.90;;;;;;5109340;28;20024;-66
2021/07/19 08:41:16;;;;;;;14.60;8.82;;;28.00;99.90;;;;;;5109435;28;20030;-66
2021/07/19 08:43:42;;;;;;;12.18;7.65;;;28.20;99.90;;;;;;5107678;28;20396;-65
2021/07/19 08:46:09;;;;;;;10.98;7.22;;;28.10;99.90;;;;;;5107261;28;20364;-67
2021/07/19 08:48:36;;;;;;;15.48;7.15;;;28.10;99.90;;;;;;5102762;28;20553;-66
2021/07/19 08:51:03;;;;;;;9.10;6.90;;;28.00;99.90;;;;;;5110696;28;20507;-64
2021/07/19 08:53:32;;;;;;;12.88;8.80;;;28.10;99.90;;;;;;5091728;28;20028;-66
2021/07/19 08:55:58;;;;;;;10.18;8.00;;;28.10;99.90;;;;;;5090185;28;20081;-65
2021/07/19 08:58:25;;;;;;;9.35;7.55;;;28.20;99.90;;;;;;5090204;28;20028;-66
2021/07/19 09:00:52;;;;;;;13.65;8.10;;;28.20;99.90;;;;;;5091167;28;20028;-65
2021/07/19 09:03:18;;;;;;;11.25;7.57;;;28.20;99.90;;;;;;5090468;28;20149;-64
2021/07/19 09:05:43;;;;;;;11.98;7.47;;;28.20;99.90;;;;;;5072447;28;20111;-65
2021/07/19 09:08:09;;;;;;;13.50;8.88;;;28.40;99.90;;;;;;5090825;28;20390;-65
2021/07/19 09:10:35;;;;;;;13.02;7.20;;;28.50;99.90;;;;;;5090310;28;20024;-66
2021/07/19 09:13:02;;;;;;;11.88;7.85;;;28.60;99.90;;;;;;5090028;28;20032;-65
2021/07/19 09:15:33;;;;;;;14.85;8.35;;;28.70;99.90;;;;;;5089138;28;20032;-63
2021/07/19 09:18:00;;;;;;;17.85;8.68;;;28.70;99.90;;;;;;5090455;28;20600;-68
2021/07/19 09:20:34;;;;;;;10.63;7.55;;;28.80;99.90;;;;;;5092452;28;20114;-69
2021/07/19 09:23:00;;;;;;;16.33;9.18;;;28.90;99.90;;;;;;5102761;28;20031;-67
2021/07/19 09:25:26;;;;;;;13.05;8.23;;;28.90;99.90;;;;;;5109283;28;20020;-64
2021/07/19 09:28:05;;;;;;;15.25;8.80;;;29.00;99.90;;;;;;5109135;28;20023;-67
2021/07/19 09:30:33;;;;;;;13.68;8.82;;;29.00;99.90;;;;;;5104214;28;20024;-63
2021/07/19 09:33:08;;;;;;;12.70;7.65;;;29.00;99.90;;;;;;5099058;28;20020;-69
2021/07/19 09:35:37;;;;;;;13.95;8.10;;;29.00;99.90;;;;;;5105458;28;20023;-67
2021/07/19 09:38:16;;;;;;;19.30;8.93;;;29.00;99.90;;;;;;5106489;28;20059;-72
2021/07/19 09:40:44;;;;;;;15.05;8.30;;;29.10;99.90;;;;;;5090871;28;20039;-74
2021/07/19 09:43:15;;;;;;;18.13;10.25;;;29.30;99.90;;;;;;5097982;28;20038;-73
2021/07/19 09:45:41;;;;;;;11.40;7.97;;;29.40;99.90;;;;;;5111122;28;20059;-74
2021/07/19 09:48:08;;;;;;;13.50;8.93;;;29.30;99.90;;;;;;5110785;28;20032;-74
2021/07/19 09:50:53;;;;;;;21.90;9.93;;;29.20;99.90;;;;;;5109288;28;20054;-73
2021/07/19 09:53:38;;;;;;;15.40;9.00;;;29.40;99.90;;;;;;5108174;28;20043;-74
2021/07/19 09:56:07;;;;;;;8.63;7.72;;;29.50;99.90;;;;;;5103128;28;20023;-74
2021/07/19 09:58:32;;;;;;;12.55;8.32;;;29.60;99.90;;;;;;5089956;28;20032;-72
2021/07/19 10:00:58;;;;;;;13.80;9.15;;;29.60;99.90;;;;;;5088862;28;20024;-73
2021/07/19 10:03:25;;;;;;;11.90;8.20;;;29.50;99.90;;;;;;5090168;28;20479;-73
2021/07/19 10:05:51;;;;;;;13.68;8.82;;;29.60;99.90;;;;;;5092501;28;20066;-73
2021/07/19 10:08:24;;;;;;;14.90;8.85;;;29.70;99.90;;;;;;5092059;28;20056;-73
2021/07/19 10:10:50;;;;;;;17.25;8.65;;;29.80;99.90;;;;;;5093835;28;20028;-74
2021/07/19 10:13:16;;;;;;;12.02;9.27;;;29.90;99.90;;;;;;5109028;28;20415;-74
2021/07/19 10:15:42;;;;;;;20.75;10.80;;;29.90;99.90;;;;;;5111507;28;20031;-74
2021/07/19 10:18:10;;;;;;;22.60;10.18;;;29.90;99.90;;;;;;5094387;28;20028;-74
2021/07/19 10:20:37;;;;;;;16.15;8.73;;;29.90;99.90;;;;;;5093169;28;20507;-74
2021/07/19 10:23:04;;;;;;;18.40;9.65;;;29.80;99.90;;;;;;5094553;28;20081;-71
2021/07/19 10:25:30;;;;;;;18.27;9.88;;;29.90;99.90;;;;;;5094104;28;20032;-73
2021/07/19 10:27:56;;;;;;;15.88;8.88;;;29.60;99.90;;;;;;5092975;28;20486;-72
2021/07/19 10:30:22;;;;;;;17.33;9.07;;;29.70;99.90;;;;;;5092645;28;20520;-73
2021/07/19 10:32:49;;;;;;;12.45;9.35;;;29.70;99.90;;;;;;5110709;28;20118;-73
2021/07/19 10:35:19;;;;;;;21.48;9.20;;;29.80;99.90;;;;;;5113770;28;20034;-73
2021/07/19 10:37:45;;;;;;;18.27;10.20;;;29.80;99.90;;;;;;5112071;28;20024;-76
2021/07/19 10:40:14;;;;;;;16.35;9.20;;;29.90;99.90;;;;;;5113607;28;20027;-73
2021/07/19 10:42:43;;;;;;;20.73;8.95;;;30.00;99.90;;;;;;5112353;28;20499;-72
2021/07/19 10:45:21;;;;;;;15.93;8.57;;;30.10;99.90;;;;;;5112415;28;20032;-73
2021/07/19 10:47:54;;;;;;;20.50;8.55;;;30.00;99.90;;;;;;5108108;28;20449;-72
2021/07/19 10:50:36;;;;;;;22.80;10.40;;;30.00;99.90;;;;;;5112176;28;20035;-74
2021/07/19 10:53:01;;;;;;;14.77;8.45;;;30.10;99.90;;;;;;5095574;28;20123;-73
2021/07/19 10:55:29;;;;;;;19.85;9.10;;;30.10;99.90;;;;;;5096030;28;20024;-72
2021/07/19 10:58:07;;;;;;;13.55;8.75;;;30.10;99.90;;;;;;5095955;28;20180;-73
2021/07/19 11:00:37;;;;;;;17.05;9.35;;;30.30;99.90;;;;;;5093545;28;20505;-73
2021/07/19 11:03:06;;;;;;;15.13;8.52;;;30.30;99.90;;;;;;5095006;28;20099;-73
2021/07/19 11:05:44;;;;;;;13.20;9.20;;;30.40;99.90;;;;;;5093399;28;20034;-72
2021/07/19 11:08:24;;;;;;;22.13;9.60;;;30.70;99.90;;;;;;5092567;28;20436;-73
2021/07/19 11:10:52;;;;;;;20.13;9.15;;;30.70;99.90;;;;;;5097349;28;20016;-73
2021/07/19 11:13:27;;;;;;;21.17;9.50;;;30.70;99.90;;;;;;5113331;28;20016;-74
2021/07/19 11:15:52;;;;;;;19.85;9.02;;;30.40;99.90;;;;;;5109179;28;20489;-73
2021/07/19 11:18:23;;;;;;;16.77;9.10;;;30.50;99.90;;;;;;5090354;28;20043;-73
2021/07/19 11:20:49;;;;;;;14.80;10.18;;;30.40;99.90;;;;;;5092669;28;20019;-72
2021/07/19 11:23:25;;;;;;;16.42;9.77;;;30.30;99.90;;;;;;5108457;28;20043;-73
2021/07/19 11:25:52;;;;;;;20.48;10.35;;;30.30;99.90;;;;;;5109465;28;20156;-73
2021/07/19 11:28:21;;;;;;;16.05;8.68;;;30.30;99.90;;;;;;5090740;28;20060;-71
2021/07/19 11:31:06;;;;;;;15.02;9.50;;;30.30;99.90;;;;;;5092219;28;20505;-72
2021/07/19 11:33:38;;;;;;;21.38;9.80;;;30.30;99.90;;;;;;5103658;28;20042;-75
2021/07/19 11:36:26;;;;;;;17.05;10.20;;;30.30;99.90;;;;;;5109294;28;20032;-74
2021/07/19 11:38:53;;;;;;;17.02;9.48;;;30.50;99.90;;;;;;5092406;28;20115;-74
2021/07/19 11:41:25;;;;;;;22.15;10.05;;;30.70;99.90;;;;;;5096521;28;20054;-74
2021/07/19 11:43:53;;;;;;;22.77;17.15;;;30.60;99.90;;;;;;5098483;28;20028;-75
2021/07/19 11:46:31;;;;;;;19.17;10.68;;;30.50;99.90;;;;;;5091408;28;20030;-72
2021/07/19 11:48:59;;;;;;;25.55;13.48;;;30.60;99.90;;;;;;5106102;27;20092;-74
2021/07/19 11:51:25;;;;;;;20.88;10.90;;;30.60;99.90;;;;;;5112351;28;20030;-74
2021/07/19 11:53:51;;;;;;;18.67;9.75;;;30.50;99.90;;;;;;5107273;28;20051;-72
2021/07/19 11:56:21;;;;;;;28.95;10.43;;;30.60;99.90;;;;;;5090824;28;20478;-75
2021/07/19 11:58:55;;;;;;;24.65;9.88;;;30.60;99.90;;;;;;5097236;28;20031;-72
2021/07/19 12:01:31;;;;;;;20.40;9.93;;;30.70;99.90;;;;;;5094437;28;20070;-74
2021/07/19 12:03:58;;;;;;;18.27;9.50;;;30.90;99.90;;;;;;5093126;28;20103;-73
2021/07/19 12:06:26;;;;;;;14.90;9.43;;;31.00;99.90;;;;;;5099029;28;20028;-72
2021/07/19 12:09:01;;;;;;;23.90;9.60;;;31.00;99.90;;;;;;5101440;28;20035;-73
2021/07/19 12:11:27;;;;;;;23.00;9.52;;;31.00;99.90;;;;;;5111751;28;20054;-75
2021/07/19 12:14:09;;;;;;;23.83;9.57;;;31.10;99.90;;;;;;5097109;28;20110;-72
2021/07/19 12:16:38;;;;;;;13.40;8.27;;;31.20;99.90;;;;;;5111788;28;20393;-72
2021/07/19 12:19:05;;;;;;;20.05;8.73;;;31.10;99.90;;;;;;5109160;28;20084;-74
2021/07/19 12:21:37;;;;;;;16.23;9.27;;;31.30;99.90;;;;;;5111798;28;20024;-72
2021/07/19 12:24:03;;;;;;;21.00;10.77;;;31.00;99.90;;;;;;5110954;28;20022;-73
2021/07/19 12:26:32;;;;;;;21.73;10.70;;;30.90;99.90;;;;;;5111750;28;20200;-72
2021/07/19 12:29:00;;;;;;;22.08;9.82;;;31.00;99.90;;;;;;5109375;28;20019;-73
2021/07/19 12:31:26;;;;;;;19.92;9.45;;;31.10;99.90;;;;;;5110581;28;20023;-73
2021/07/19 12:33:54;;;;;;;16.75;8.50;;;31.20;99.90;;;;;;5107843;28;20024;-74
2021/07/19 12:36:20;;;;;;;25.05;10.10;;;31.40;99.90;;;;;;5091337;28;20157;-74
2021/07/19 12:38:47;;;;;;;20.05;10.02;;;31.30;99.90;;;;;;5089496;28;20016;-72
2021/07/19 12:41:17;;;;;;;15.98;8.73;;;31.50;99.90;;;;;;5089515;28;20027;-73
2021/07/19 12:43:47;;;;;;;15.93;9.45;;;31.50;99.90;;;;;;5089203;28;20031;-74
2021/07/19 12:46:13;;;;;;;15.38;9.02;;;31.00;99.90;;;;;;5090887;28;20048;-72